Strona główna
METAR-TAF:

METAR-TAF

Lotnisko :

Moorhead Municipal Airport

Moorhead, Minnesota, Stany Zjednoczone

Szerokość geograficzna: 46-50-21N, Długość geograficzna: 096-39-47W, wysokość: 280 m

Aktualna obserwacja pogody

Raport powstał 22 minut temu, godzina 12:35 UTC
Wiatr 13 kt od południe
Temperatura 1°C
Wilgotność 69%
Ciśnienie 1003 hPa
Widzialność: 16.1 km
bezchmurnie

METAR: KJKJ 261235Z AUTO 17013KT 10SM CLR 01/M04 A2961 RMK AO2

czas: 06:57 (12:57 UTC)


TAF: brakujący

Obserwacja i prognoza pogody dla ponad 4000 lotnisk (raport METAR i TAF).

Dostępne stacje oznaczono żółtymi i czerwonymi punktami na mapie.

Najedź kursorem aby zobaczyć nazwę stacji.

Kliknij aby zobaczyć obserwacje i prognozy pogody.

Aby zmienić mapę: kliknij na zielony przycisk z czarnym krzyżykiem, aby powiększyć; na zielony przycisk z myślnikiem, aby pomniejszyć; na zielone strzałki, aby przejść do map sąsiednich.


METAR-TAF: